createdAt,value
2023-05-06T00:01:25.570Z,9.65
2023-05-06T00:04:25.602Z,9.64
2023-05-06T00:07:25.598Z,9.64
2023-05-06T00:10:25.599Z,9.57
2023-05-06T00:13:25.600Z,9.51
2023-05-06T00:16:25.620Z,9.44
2023-05-06T00:19:25.602Z,9.45
2023-05-06T00:22:25.606Z,9.42
2023-05-06T00:25:25.627Z,9.43
2023-05-06T00:28:25.615Z,9.45
2023-05-06T00:31:25.644Z,9.47
2023-05-06T00:34:25.626Z,9.48
2023-05-06T00:37:25.638Z,9.54
2023-05-06T00:40:25.655Z,9.55
2023-05-06T00:43:25.673Z,9.55
2023-05-06T00:46:25.674Z,9.55
2023-05-06T00:49:25.651Z,9.54
2023-05-06T00:52:25.653Z,9.56
2023-05-06T00:55:25.679Z,9.61
2023-05-06T00:58:25.668Z,9.61
2023-05-06T01:01:25.704Z,9.61
2023-05-06T01:04:25.674Z,9.61
2023-05-06T01:07:25.691Z,9.62
2023-05-06T01:10:25.701Z,9.63
2023-05-06T01:13:25.692Z,9.64
2023-05-06T01:16:25.838Z,9.65
2023-05-06T01:19:25.701Z,9.6
2023-05-06T01:22:25.697Z,9.67
2023-05-06T01:25:25.723Z,9.62
2023-05-06T01:28:25.708Z,9.63
2023-05-06T01:31:25.744Z,9.64
2023-05-06T01:34:25.710Z,9.65
2023-05-06T01:37:25.713Z,9.66
2023-05-06T01:40:25.731Z,9.66
2023-05-06T01:43:25.717Z,9.61
2023-05-06T01:46:25.795Z,9.61
2023-05-06T01:49:25.726Z,9.62
2023-05-06T01:52:25.732Z,9.62
2023-05-06T01:55:25.756Z,9.56
2023-05-06T01:58:25.736Z,9.63
2023-05-06T02:01:25.772Z,9.64
2023-05-06T02:04:25.748Z,9.57
2023-05-06T02:07:25.747Z,9.57
2023-05-06T02:10:25.770Z,9.57
2023-05-06T02:13:25.764Z,9.57
2023-05-06T02:16:25.780Z,9.57
2023-05-06T02:19:25.760Z,9.57
2023-05-06T02:22:25.776Z,9.51
2023-05-06T02:25:25.785Z,9.51
2023-05-06T02:28:25.789Z,9.51
2023-05-06T02:31:25.815Z,9.5
2023-05-06T02:34:25.781Z,9.5
2023-05-06T02:37:25.793Z,9.5
2023-05-06T02:40:25.820Z,9.5
2023-05-06T02:43:25.813Z,9.44
2023-05-06T02:46:25.836Z,9.43
2023-05-06T02:49:25.821Z,9.42
2023-05-06T02:52:25.812Z,9.41
2023-05-06T02:55:25.825Z,9.41
2023-05-06T02:58:25.825Z,9.34
2023-05-06T03:01:25.845Z,9.33
2023-05-06T03:04:25.851Z,9.33
2023-05-06T03:07:25.834Z,9.31
2023-05-06T03:10:25.871Z,9.31
2023-05-06T03:13:25.850Z,9.23
2023-05-06T03:16:25.866Z,9.23
2023-05-06T03:19:25.851Z,9.22
2023-05-06T03:22:25.855Z,9.22
2023-05-06T03:25:25.877Z,9.21
2023-05-06T03:28:25.865Z,9.15
2023-05-06T03:31:25.912Z,9.15
2023-05-06T03:34:25.875Z,9.15
2023-05-06T03:37:25.875Z,9.15
2023-05-06T03:40:25.899Z,9.15
2023-05-06T03:43:25.880Z,9.15
2023-05-06T03:46:25.922Z,9.15
2023-05-06T03:49:25.890Z,9.15
2023-05-06T03:52:25.900Z,9.15
2023-05-06T03:55:25.911Z,9.09
2023-05-06T03:58:25.911Z,9.15
2023-05-06T04:01:25.911Z,9.15
2023-05-06T04:04:25.916Z,9.15
2023-05-06T04:07:25.920Z,9.15
2023-05-06T04:10:25.938Z,9.15
2023-05-06T04:13:25.926Z,9.15
2023-05-06T04:16:25.969Z,9.15
2023-05-06T04:19:25.933Z,9.15
2023-05-06T04:22:25.942Z,9.2
2023-05-06T04:25:25.959Z,9.19
2023-05-06T04:28:25.954Z,9.26
2023-05-06T04:31:25.969Z,9.26
2023-05-06T04:34:25.961Z,9.31
2023-05-06T04:37:25.963Z,9.34
2023-05-06T04:40:25.987Z,9.32
2023-05-06T04:43:25.968Z,9.31
2023-05-06T04:46:25.977Z,9.3
2023-05-06T04:49:25.979Z,9.35
2023-05-06T04:52:25.990Z,9.33
2023-05-06T04:55:25.998Z,9.32
2023-05-06T04:58:25.997Z,9.35
2023-05-06T05:01:26.008Z,9.26
2023-05-06T05:04:25.998Z,9.25
2023-05-06T05:07:26.006Z,9.26
2023-05-06T05:10:26.011Z,9.26
2023-05-06T05:13:26.006Z,9.26
2023-05-06T05:16:26.038Z,9.26
2023-05-06T05:19:26.015Z,9.2
2023-05-06T05:22:26.016Z,9.21
2023-05-06T05:25:26.035Z,9.22
2023-05-06T05:28:26.027Z,9.23
2023-05-06T05:31:26.066Z,9.23
2023-05-06T05:34:26.026Z,9.23
2023-05-06T05:37:26.038Z,9.24
2023-05-06T05:40:26.050Z,9.23
2023-05-06T05:43:26.061Z,9.23
2023-05-06T05:46:26.193Z,9.28
2023-05-06T05:49:26.090Z,9.27
2023-05-06T05:52:26.104Z,9.27
2023-05-06T05:55:26.109Z,9.28
2023-05-06T05:58:26.112Z,9.29
2023-05-06T06:01:26.119Z,9.36
2023-05-06T06:04:26.173Z,9.36
2023-05-06T06:07:26.130Z,9.3
2023-05-06T06:10:26.146Z,9.29
2023-05-06T06:13:27.950Z,9.29
2023-05-06T06:16:26.193Z,9.3
2023-05-06T06:19:26.156Z,9.34
2023-05-06T06:22:26.161Z,9.32
2023-05-06T06:25:26.174Z,9.37
2023-05-06T06:28:26.171Z,9.4
2023-05-06T06:31:26.198Z,9.37
2023-05-06T06:34:26.168Z,9.42
2023-05-06T06:37:26.176Z,9.4
2023-05-06T06:40:26.186Z,9.45
2023-05-06T06:43:26.179Z,9.47
2023-05-06T06:46:26.191Z,9.49
2023-05-06T06:49:26.185Z,9.47
2023-05-06T06:52:26.202Z,9.5
2023-05-06T06:55:26.212Z,9.55
2023-05-06T06:58:26.202Z,9.72
2023-05-06T07:01:26.279Z,9.7
2023-05-06T07:04:26.220Z,9.74
2023-05-06T07:07:26.227Z,9.78
2023-05-06T07:10:26.267Z,9.72
2023-05-06T07:13:26.221Z,9.69
2023-05-06T07:16:26.238Z,9.76
2023-05-06T07:19:26.235Z,9.83
2023-05-06T07:22:26.235Z,9.84
2023-05-06T07:25:26.256Z,9.87
2023-05-06T07:28:26.242Z,9.9
2023-05-06T07:31:26.269Z,9.89
2023-05-06T07:34:26.261Z,10.02
2023-05-06T07:37:26.268Z,10.01
2023-05-06T07:40:26.290Z,9.98
2023-05-06T07:43:26.275Z,9.99
2023-05-06T07:46:26.414Z,10.02
2023-05-06T07:49:26.282Z,10.13
2023-05-06T07:52:26.295Z,10.18
2023-05-06T07:55:26.301Z,10.06
2023-05-06T07:58:26.300Z,10.05
2023-05-06T08:01:26.302Z,10.02
2023-05-06T08:04:26.321Z,10.11
2023-05-06T08:07:26.308Z,10.09
2023-05-06T08:10:26.324Z,10.07
2023-05-06T08:13:26.319Z,10.14
2023-05-06T08:16:26.346Z,10
2023-05-06T08:19:26.333Z,9.99
2023-05-06T08:22:26.330Z,10.02
2023-05-06T08:25:26.367Z,10.06
2023-05-06T08:28:26.339Z,10.18
2023-05-06T08:31:26.448Z,10.14
2023-05-06T08:34:26.354Z,10.11
2023-05-06T08:37:26.390Z,10.11
2023-05-06T08:40:26.382Z,10.11
2023-05-06T08:43:26.371Z,10.09
2023-05-06T08:46:26.413Z,10.16
2023-05-06T08:49:26.384Z,10.27
2023-05-06T08:52:26.384Z,10.41
2023-05-06T08:55:26.419Z,10.28
2023-05-06T08:58:26.395Z,10.24
2023-05-06T09:01:26.413Z,10.3
2023-05-06T09:04:26.397Z,10.26
2023-05-06T09:07:26.424Z,10.31
2023-05-06T09:10:26.423Z,10.37
2023-05-06T09:13:26.415Z,10.34
2023-05-06T09:16:26.429Z,10.24
2023-05-06T09:19:26.424Z,10.23
2023-05-06T09:22:26.430Z,10.34
2023-05-06T09:25:26.443Z,10.36
2023-05-06T09:28:26.440Z,10.33
2023-05-06T09:31:26.474Z,10.29
2023-05-06T09:34:26.455Z,10.42
2023-05-06T09:37:26.475Z,10.54
2023-05-06T09:40:26.482Z,10.51
2023-05-06T09:43:26.479Z,10.48
2023-05-06T09:46:26.601Z,10.41
2023-05-06T09:49:26.486Z,10.36
2023-05-06T09:52:26.490Z,10.4
2023-05-06T09:55:26.576Z,10.29
2023-05-06T09:58:26.524Z,10.07
2023-05-06T10:01:35.879Z,10.02
2023-05-06T10:04:26.793Z,10.04
2023-05-06T10:07:26.524Z,9.92
2023-05-06T10:10:26.532Z,9.98
2023-05-06T10:13:26.531Z,10.05
2023-05-06T10:16:26.588Z,10.13
2023-05-06T10:19:26.536Z,10.05
2023-05-06T10:22:26.535Z,10.01
2023-05-06T10:25:26.549Z,10.27
2023-05-06T10:28:30.415Z,10.42
2023-05-06T10:31:26.566Z,10.51
2023-05-06T10:34:26.581Z,10.6
2023-05-06T10:37:26.553Z,10.56
2023-05-06T10:40:26.576Z,10.65
2023-05-06T10:43:26.580Z,10.75
2023-05-06T10:46:26.575Z,10.69
2023-05-06T10:49:26.565Z,10.52
2023-05-06T10:52:26.581Z,10.61
2023-05-06T10:55:26.608Z,10.63
2023-05-06T10:58:26.593Z,10.61
2023-05-06T11:01:26.673Z,10.71
2023-05-06T11:04:26.599Z,10.6
2023-05-06T11:07:26.606Z,10.66
2023-05-06T11:10:26.617Z,10.6
2023-05-06T11:13:26.865Z,10.5
2023-05-06T11:16:26.643Z,10.5
2023-05-06T11:19:26.622Z,10.43
2023-05-06T11:22:26.613Z,10.24
2023-05-06T11:25:26.639Z,10.43
2023-05-06T11:28:26.649Z,10.63
2023-05-06T11:31:26.645Z,10.51
2023-05-06T11:34:26.648Z,10.44
2023-05-06T11:37:26.652Z,10.5
2023-05-06T11:40:26.658Z,10.31
2023-05-06T11:43:26.658Z,10.25
2023-05-06T11:46:26.696Z,10.26
2023-05-06T11:49:26.666Z,10.1
2023-05-06T11:52:26.673Z,10.08
2023-05-06T11:55:26.687Z,10.17
2023-05-06T11:58:26.755Z,10.29
2023-05-06T12:01:26.681Z,10.14
2023-05-06T12:04:26.709Z,10.09
2023-05-06T12:07:26.686Z,10.13
2023-05-06T12:10:26.703Z,10.24
2023-05-06T12:13:26.711Z,10.1
2023-05-06T12:16:26.787Z,10.09
2023-05-06T12:19:26.771Z,10.06
2023-05-06T12:22:26.718Z,10.12
2023-05-06T12:25:26.741Z,9.94
2023-05-06T12:28:26.728Z,10.03
2023-05-06T12:31:26.745Z,10.17
2023-05-06T12:34:26.734Z,10.24
2023-05-06T12:37:26.768Z,9.98
2023-05-06T12:40:26.761Z,10
2023-05-06T12:43:26.744Z,10
2023-05-06T12:46:26.855Z,9.97
2023-05-06T12:49:26.799Z,9.95
2023-05-06T12:52:26.757Z,9.82
2023-05-06T12:55:26.769Z,9.82
2023-05-06T12:58:26.768Z,9.8
2023-05-06T13:01:26.879Z,10.03
2023-05-06T13:04:26.781Z,9.92
2023-05-06T13:07:26.772Z,10.04
2023-05-06T13:10:26.800Z,10.03
2023-05-06T13:13:26.792Z,10.15
2023-05-06T13:16:26.819Z,10.01
2023-05-06T13:22:26.795Z,9.84
2023-05-06T13:25:26.815Z,9.85
2023-05-06T13:28:26.804Z,9.89
2023-05-06T13:31:26.824Z,9.78
2023-05-06T13:34:26.816Z,9.91
2023-05-06T13:37:26.827Z,9.96
2023-05-06T13:40:26.832Z,9.93
2023-05-06T13:43:26.828Z,9.99
2023-05-06T13:46:26.830Z,10.02
2023-05-06T13:49:26.839Z,9.91
2023-05-06T13:52:26.845Z,9.85
2023-05-06T13:55:26.855Z,9.72
2023-05-06T13:58:26.849Z,9.75
2023-05-06T14:01:26.862Z,9.82
2023-05-06T14:04:26.889Z,9.72
2023-05-06T14:07:26.857Z,9.87
2023-05-06T14:10:26.883Z,9.88
2023-05-06T14:13:26.893Z,9.81
2023-05-06T14:16:26.902Z,9.65
2023-05-06T14:19:26.882Z,9.65
2023-05-06T14:22:26.882Z,9.52
2023-05-06T14:25:26.894Z,9.54
2023-05-06T14:28:26.890Z,9.67
2023-05-06T14:31:26.918Z,9.5
2023-05-06T14:34:26.902Z,9.44
2023-05-06T14:37:26.903Z,9.42
2023-05-06T14:40:26.917Z,9.38
2023-05-06T14:43:26.905Z,9.5
2023-05-06T14:46:29.317Z,9.39
2023-05-06T14:49:26.922Z,9.42
2023-05-06T14:52:26.958Z,9.37
2023-05-06T14:55:26.945Z,9.25
2023-05-06T14:58:26.942Z,9.33
2023-05-06T15:01:26.972Z,9.31
2023-05-06T15:04:26.937Z,9.2
2023-05-06T15:07:27.072Z,9.25
2023-05-06T15:10:26.986Z,9.21
2023-05-06T15:13:26.956Z,9.2
2023-05-06T15:16:26.975Z,9.16
2023-05-06T15:19:26.958Z,9.16
2023-05-06T15:22:26.982Z,9.1
2023-05-06T15:25:34.755Z,8.98
2023-05-06T15:28:26.974Z,9
2023-05-06T15:31:27.013Z,9.01
2023-05-06T15:34:26.992Z,9.03
2023-05-06T15:37:26.984Z,9.08
2023-05-06T15:40:27.034Z,9.04
2023-05-06T15:43:36.304Z,9
2023-05-06T15:46:27.020Z,8.97
2023-05-06T15:49:49.172Z,8.94
2023-05-06T15:52:27.009Z,8.84
2023-05-06T15:55:27.023Z,8.84
2023-05-06T15:58:27.015Z,8.83
2023-05-06T16:01:50.592Z,8.74
2023-05-06T16:04:27.154Z,8.8
2023-05-06T16:07:27.023Z,8.81
2023-05-06T16:10:27.039Z,8.73
2023-05-06T16:13:27.064Z,8.67
2023-05-06T16:16:27.089Z,8.67
2023-05-06T16:19:27.039Z,8.66
2023-05-06T16:22:27.037Z,8.67
2023-05-06T16:25:27.044Z,8.71
2023-05-06T16:28:27.048Z,8.71
2023-05-06T16:31:27.075Z,8.65
2023-05-06T16:34:27.060Z,8.64
2023-05-06T16:37:27.061Z,8.55
2023-05-06T16:40:27.083Z,8.57
2023-05-06T16:43:27.077Z,8.57
2023-05-06T16:46:27.092Z,8.52
2023-05-06T16:49:27.085Z,8.54
2023-05-06T16:52:27.913Z,8.53
2023-05-06T16:55:27.102Z,8.51
2023-05-06T16:58:27.096Z,8.54
2023-05-06T17:01:27.135Z,8.51
2023-05-06T17:04:27.123Z,8.5
2023-05-06T17:07:27.105Z,8.45
2023-05-06T17:10:27.119Z,8.42
2023-05-06T17:13:27.119Z,8.42
2023-05-06T17:16:27.155Z,8.34
2023-05-06T17:19:27.138Z,8.32
2023-05-06T17:22:27.150Z,8.31
2023-05-06T17:25:27.153Z,8.29
2023-05-06T17:28:27.153Z,8.31
2023-05-06T17:31:27.237Z,8.3
2023-05-06T17:34:27.163Z,8.27
2023-05-06T17:37:27.158Z,8.29
2023-05-06T17:40:27.169Z,8.23
2023-05-06T17:43:27.167Z,8.23
2023-05-06T17:46:27.181Z,8.2
2023-05-06T17:49:27.164Z,8.14
2023-05-06T17:52:27.168Z,8.15
2023-05-06T17:55:27.191Z,8.1
2023-05-06T17:58:27.184Z,8.11
2023-05-06T18:01:27.230Z,8.12
2023-05-06T18:04:27.198Z,8.12
2023-05-06T18:07:27.197Z,8.14
2023-05-06T18:10:27.206Z,8.14
2023-05-06T18:13:27.345Z,8.15
2023-05-06T18:16:27.248Z,8.15
2023-05-06T18:19:27.222Z,8.17
2023-05-06T18:22:27.236Z,8.16
2023-05-06T18:25:27.235Z,8.11
2023-05-06T18:28:27.244Z,8.12
2023-05-06T18:31:27.245Z,8.13
2023-05-06T18:34:27.247Z,8.12
2023-05-06T18:37:27.240Z,8.11
2023-05-06T18:40:27.267Z,8.08
2023-05-06T18:43:27.250Z,8.09
2023-05-06T18:46:27.298Z,8.11
2023-05-06T18:49:27.263Z,8.12
2023-05-06T18:52:27.259Z,8.12
2023-05-06T18:55:27.333Z,8.08
2023-05-06T18:58:27.271Z,8.03
2023-05-06T19:01:27.377Z,8.06
2023-05-06T19:04:27.336Z,8.06
2023-05-06T19:07:27.280Z,8.08
2023-05-06T19:10:27.290Z,8.04
2023-05-06T19:13:27.295Z,8.04
2023-05-06T19:16:27.293Z,8
2023-05-06T19:19:27.295Z,8
2023-05-06T19:22:27.295Z,7.97
2023-05-06T19:25:27.308Z,8.04
2023-05-06T19:28:27.299Z,8.05
2023-05-06T19:31:27.315Z,8
2023-05-06T19:34:27.302Z,7.99
2023-05-06T19:37:27.297Z,7.95
2023-05-06T19:40:27.322Z,7.96
2023-05-06T19:43:27.317Z,7.97
2023-05-06T19:46:27.350Z,7.99
2023-05-06T19:49:27.313Z,7.94
2023-05-06T19:52:27.309Z,7.95
2023-05-06T19:55:27.399Z,7.97
2023-05-06T19:58:27.345Z,7.91
2023-05-06T20:01:27.395Z,7.92
2023-05-06T20:04:27.369Z,7.92
2023-05-06T20:07:27.461Z,7.92
2023-05-06T20:10:27.442Z,7.93
2023-05-06T20:13:27.484Z,7.88
2023-05-06T20:16:27.458Z,7.88
2023-05-06T20:19:27.431Z,7.9
2023-05-06T20:22:27.435Z,7.86
2023-05-06T20:25:27.439Z,7.85
2023-05-06T20:28:27.442Z,7.85
2023-05-06T20:31:27.462Z,7.81
2023-05-06T20:34:27.436Z,7.82
2023-05-06T20:37:27.441Z,7.83
2023-05-06T20:40:27.454Z,7.79
2023-05-06T20:43:27.447Z,7.8
2023-05-06T20:46:27.433Z,7.81
2023-05-06T20:49:27.432Z,7.81
2023-05-06T20:52:27.434Z,7.8
2023-05-06T20:55:27.472Z,7.76
2023-05-06T20:58:27.443Z,7.77
2023-05-06T21:01:27.483Z,7.78
2023-05-06T21:04:27.431Z,7.78
2023-05-06T21:07:27.441Z,7.79
2023-05-06T21:10:27.454Z,7.79
2023-05-06T21:13:27.495Z,7.79
2023-05-06T21:16:27.446Z,7.81
2023-05-06T21:19:27.444Z,7.81
2023-05-06T21:22:27.444Z,7.81
2023-05-06T21:25:27.457Z,7.77
2023-05-06T21:28:27.439Z,7.83
2023-05-06T21:31:27.485Z,7.78
2023-05-06T21:34:27.443Z,7.79
2023-05-06T21:37:27.445Z,7.79
2023-05-06T21:40:27.484Z,7.79
2023-05-06T21:43:27.457Z,7.79
2023-05-06T21:46:27.506Z,7.78
2023-05-06T21:49:27.454Z,7.72
2023-05-06T21:52:27.454Z,7.73
2023-05-06T21:55:27.549Z,7.78
2023-05-06T21:58:27.457Z,7.78
2023-05-06T22:01:27.644Z,7.77
2023-05-06T22:04:27.460Z,7.79
2023-05-06T22:07:27.468Z,7.79
2023-05-06T22:10:27.480Z,7.81
2023-05-06T22:13:27.498Z,7.8
2023-05-06T22:16:27.500Z,7.79
2023-05-06T22:19:27.481Z,7.75
2023-05-06T22:22:27.480Z,7.76
2023-05-06T22:25:27.496Z,7.77
2023-05-06T22:28:27.478Z,7.77
2023-05-06T22:31:27.484Z,7.73
2023-05-06T22:34:27.487Z,7.73
2023-05-06T22:37:27.501Z,7.73
2023-05-06T22:40:27.516Z,7.72
2023-05-06T22:43:27.499Z,7.74
2023-05-06T22:46:27.527Z,7.73
2023-05-06T22:49:27.512Z,7.74
2023-05-06T22:52:27.520Z,7.74
2023-05-06T22:55:27.537Z,7.74
2023-05-06T22:58:27.521Z,7.75
2023-05-06T23:01:27.554Z,7.75
2023-05-06T23:04:27.527Z,7.75
2023-05-06T23:07:27.532Z,7.75
2023-05-06T23:10:27.550Z,7.8
2023-05-06T23:13:27.599Z,7.82
2023-05-06T23:16:27.561Z,7.8
2023-05-06T23:19:27.557Z,7.8
2023-05-06T23:22:27.551Z,7.81
2023-05-06T23:25:27.567Z,7.81
2023-05-06T23:28:27.561Z,7.8
2023-05-06T23:31:27.617Z,7.79
2023-05-06T23:34:27.567Z,7.8
2023-05-06T23:37:27.594Z,7.78
2023-05-06T23:40:27.593Z,7.77
2023-05-06T23:43:27.578Z,7.74
2023-05-06T23:46:27.598Z,7.73
2023-05-06T23:49:27.585Z,7.73
2023-05-06T23:52:27.587Z,7.72
2023-05-06T23:55:27.596Z,7.72
2023-05-06T23:58:27.583Z,7.72
